ESUT

Hemaven Tärnaby Airport

Airport
ICAO code
ESUT
IATA Code
HMV
Summary
ICAO Region
EUR
ICAO Territory
Location

Hemaven, Storuman

Serving
Hemaven
Elevation
1503 ft
Coordinates
65° 48' 22" N , 15° 4' 58" E
KCC
Metar
ESUT 201620Z AUTO 33011KT 300V010 9999 NCD M00/M10 Q1019

Airport in Hemavan, Sweden.

Climatology

Subpolar climate (Köppen climate classification Dfc)

Runways

Designator Length Width Surface Rops
15/33 1601 30 ASP No/No

Airport map

Aerial View

SKYbrary Partners:

Safety knowledge contributed by: